sensor_id;sensor_type;location;lat;lon;timestamp;temperature;humidity
18456;DHT22;9357;49.900;8.208;2024-03-23T00:54:47;10.50;99.90
18456;DHT22;9357;49.900;8.208;2024-03-23T00:56:17;10.60;99.90
18456;DHT22;9357;49.900;8.208;2024-03-23T00:57:49;10.60;99.90
18456;DHT22;9357;49.900;8.208;2024-03-23T00:59:20;10.60;99.90
18456;DHT22;9357;49.900;8.208;2024-03-23T01:00:52;10.50;99.90
18456;DHT22;9357;49.900;8.208;2024-03-23T01:02:24;10.50;99.90
18456;DHT22;9357;49.900;8.208;2024-03-23T01:03:55;10.50;99.90
18456;DHT22;9357;49.900;8.208;2024-03-23T01:05:26;10.50;99.90
18456;DHT22;9357;49.900;8.208;2024-03-23T01:06:59;10.50;99.90
18456;DHT22;9357;49.900;8.208;2024-03-23T01:08:30;10.40;99.90
18456;DHT22;9357;49.900;8.208;2024-03-23T01:10:02;10.40;99.90
18456;DHT22;9357;49.900;8.208;2024-03-23T01:11:34;10.30;99.90
18456;DHT22;9357;49.900;8.208;2024-03-23T01:13:05;10.30;99.90
18456;DHT22;9357;49.900;8.208;2024-03-23T01:14:37;10.30;99.90
18456;DHT22;9357;49.900;8.208;2024-03-23T01:16:08;10.30;99.90
18456;DHT22;9357;49.900;8.208;2024-03-23T01:17:40;10.30;99.90
18456;DHT22;9357;49.900;8.208;2024-03-23T01:19:11;10.30;99.90
18456;DHT22;9357;49.900;8.208;2024-03-23T01:20:41;10.30;99.90
18456;DHT22;9357;49.900;8.208;2024-03-23T01:22:13;10.30;99.90
18456;DHT22;9357;49.900;8.208;2024-03-23T01:23:44;10.30;99.90
18456;DHT22;9357;49.900;8.208;2024-03-23T01:25:17;10.30;99.90
18456;DHT22;9357;49.900;8.208;2024-03-23T01:26:48;10.40;99.90
18456;DHT22;9357;49.900;8.208;2024-03-23T01:28:19;10.30;99.90
18456;DHT22;9357;49.900;8.208;2024-03-23T01:29:51;10.30;99.90
18456;DHT22;9357;49.900;8.208;2024-03-23T01:31:23;10.30;99.90
18456;DHT22;9357;49.900;8.208;2024-03-23T01:32:54;10.30;99.90
18456;DHT22;9357;49.900;8.208;2024-03-23T01:34:25;10.20;99.90
18456;DHT22;9357;49.900;8.208;2024-03-23T01:35:57;10.20;99.90
18456;DHT22;9357;49.900;8.208;2024-03-23T01:37:28;10.10;99.90
18456;DHT22;9357;49.900;8.208;2024-03-23T01:39:00;10.10;99.90
18456;DHT22;9357;49.900;8.208;2024-03-23T01:40:32;10.10;99.90
18456;DHT22;9357;49.900;8.208;2024-03-23T01:42:03;10.10;99.90
18456;DHT22;9357;49.900;8.208;2024-03-23T01:43:36;10.00;99.90
18456;DHT22;9357;49.900;8.208;2024-03-23T01:45:08;10.00;99.90
18456;DHT22;9357;49.900;8.208;2024-03-23T01:46:39;10.00;99.90
18456;DHT22;9357;49.900;8.208;2024-03-23T01:48:12;10.00;99.90
18456;DHT22;9357;49.900;8.208;2024-03-23T01:49:43;10.00;99.90
18456;DHT22;9357;49.900;8.208;2024-03-23T01:51:14;10.00;99.90
18456;DHT22;9357;49.900;8.208;2024-03-23T01:52:46;9.90;99.90
18456;DHT22;9357;49.900;8.208;2024-03-23T01:54:17;10.00;99.90
18456;DHT22;9357;49.900;8.208;2024-03-23T01:55:51;10.00;99.90
18456;DHT22;9357;49.900;8.208;2024-03-23T01:57:22;9.90;99.90
18456;DHT22;9357;49.900;8.208;2024-03-23T01:58:53;10.00;99.90
18456;DHT22;9357;49.900;8.208;2024-03-23T02:00:25;10.00;99.90
18456;DHT22;9357;49.900;8.208;2024-03-23T02:01:58;10.00;99.90
18456;DHT22;9357;49.900;8.208;2024-03-23T02:03:29;10.00;99.90
18456;DHT22;9357;49.900;8.208;2024-03-23T02:05:01;9.90;99.90
18456;DHT22;9357;49.900;8.208;2024-03-23T02:06:33;10.00;99.90
18456;DHT22;9357;49.900;8.208;2024-03-23T02:08:04;9.90;99.90
18456;DHT22;9357;49.900;8.208;2024-03-23T02:09:36;9.90;99.90
18456;DHT22;9357;49.900;8.208;2024-03-23T02:11:09;9.90;99.90
18456;DHT22;9357;49.900;8.208;2024-03-23T02:12:40;9.90;99.90
18456;DHT22;9357;49.900;8.208;2024-03-23T02:14:11;9.90;99.90
18456;DHT22;9357;49.900;8.208;2024-03-23T02:15:42;9.90;99.90
18456;DHT22;9357;49.900;8.208;2024-03-23T02:17:13;9.90;99.90
18456;DHT22;9357;49.900;8.208;2024-03-23T02:18:45;9.90;99.90
18456;DHT22;9357;49.900;8.208;2024-03-23T02:20:16;9.90;99.90
18456;DHT22;9357;49.900;8.208;2024-03-23T02:21:47;9.90;99.90
18456;DHT22;9357;49.900;8.208;2024-03-23T02:23:20;9.90;99.90
18456;DHT22;9357;49.900;8.208;2024-03-23T02:24:51;9.90;99.90
18456;DHT22;9357;49.900;8.208;2024-03-23T02:26:22;9.90;99.90
18456;DHT22;9357;49.900;8.208;2024-03-23T02:27:54;9.90;99.90
18456;DHT22;9357;49.900;8.208;2024-03-23T02:29:25;9.90;99.90
18456;DHT22;9357;49.900;8.208;2024-03-23T02:30:56;9.90;99.90
18456;DHT22;9357;49.900;8.208;2024-03-23T02:32:29;9.90;99.90
18456;DHT22;9357;49.900;8.208;2024-03-23T02:34:00;9.90;99.90
18456;DHT22;9357;49.900;8.208;2024-03-23T02:35:30;9.90;99.90
18456;DHT22;9357;49.900;8.208;2024-03-23T02:37:02;9.90;99.90
18456;DHT22;9357;49.900;8.208;2024-03-23T02:38:42;9.90;99.90
18456;DHT22;9357;49.900;8.208;2024-03-23T02:40:13;9.90;99.90
18456;DHT22;9357;49.900;8.208;2024-03-23T02:41:44;10.00;99.90
18456;DHT22;9357;49.900;8.208;2024-03-23T02:43:15;9.90;99.90
18456;DHT22;9357;49.900;8.208;2024-03-23T02:44:47;9.90;99.90
18456;DHT22;9357;49.900;8.208;2024-03-23T02:46:18;9.90;99.90
18456;DHT22;9357;49.900;8.208;2024-03-23T02:47:50;9.90;99.90
18456;DHT22;9357;49.900;8.208;2024-03-23T02:49:22;9.90;99.90
18456;DHT22;9357;49.900;8.208;2024-03-23T02:50:53;9.90;99.90
18456;DHT22;9357;49.900;8.208;2024-03-23T02:52:25;9.90;99.90
18456;DHT22;9357;49.900;8.208;2024-03-23T02:53:58;9.90;99.90
18456;DHT22;9357;49.900;8.208;2024-03-23T02:55:29;9.90;99.90
18456;DHT22;9357;49.900;8.208;2024-03-23T02:57:00;9.80;99.90
18456;DHT22;9357;49.900;8.208;2024-03-23T02:58:31;9.80;99.90
18456;DHT22;9357;49.900;8.208;2024-03-23T03:00:04;9.80;99.90
18456;DHT22;9357;49.900;8.208;2024-03-23T03:01:37;9.80;99.90
18456;DHT22;9357;49.900;8.208;2024-03-23T03:03:07;9.80;99.90
18456;DHT22;9357;49.900;8.208;2024-03-23T03:04:39;9.80;99.90
18456;DHT22;9357;49.900;8.208;2024-03-23T03:06:10;9.80;99.90
18456;DHT22;9357;49.900;8.208;2024-03-23T03:07:41;9.80;99.90
18456;DHT22;9357;49.900;8.208;2024-03-23T03:09:14;9.80;99.90
18456;DHT22;9357;49.900;8.208;2024-03-23T03:10:46;9.80;99.90
18456;DHT22;9357;49.900;8.208;2024-03-23T03:12:16;9.80;99.90
18456;DHT22;9357;49.900;8.208;2024-03-23T03:13:48;9.80;99.90
18456;DHT22;9357;49.900;8.208;2024-03-23T03:15:19;9.80;99.90
18456;DHT22;9357;49.900;8.208;2024-03-23T03:16:50;9.80;99.90
18456;DHT22;9357;49.900;8.208;2024-03-23T03:18:22;9.80;99.90
18456;DHT22;9357;49.900;8.208;2024-03-23T03:19:53;9.70;99.90
18456;DHT22;9357;49.900;8.208;2024-03-23T03:21:26;9.80;99.90
18456;DHT22;9357;49.900;8.208;2024-03-23T03:22:58;9.80;99.90
18456;DHT22;9357;49.900;8.208;2024-03-23T03:24:30;9.80;99.90
18456;DHT22;9357;49.900;8.208;2024-03-23T03:26:01;9.80;99.90
18456;DHT22;9357;49.900;8.208;2024-03-23T03:27:34;9.80;99.90
18456;DHT22;9357;49.900;8.208;2024-03-23T03:29:05;9.80;99.90
18456;DHT22;9357;49.900;8.208;2024-03-23T03:30:36;9.80;99.90
18456;DHT22;9357;49.900;8.208;2024-03-23T03:32:07;9.80;99.90
18456;DHT22;9357;49.900;8.208;2024-03-23T03:33:39;9.80;99.90
18456;DHT22;9357;49.900;8.208;2024-03-23T03:35:11;9.80;99.90
18456;DHT22;9357;49.900;8.208;2024-03-23T03:36:41;9.70;99.90
18456;DHT22;9357;49.900;8.208;2024-03-23T03:38:13;9.70;99.90
18456;DHT22;9357;49.900;8.208;2024-03-23T03:39:46;9.70;99.90
18456;DHT22;9357;49.900;8.208;2024-03-23T03:41:18;9.60;99.90
18456;DHT22;9357;49.900;8.208;2024-03-23T03:42:50;9.60;99.90
18456;DHT22;9357;49.900;8.208;2024-03-23T03:44:21;9.60;99.90
18456;DHT22;9357;49.900;8.208;2024-03-23T03:45:52;9.60;99.90
18456;DHT22;9357;49.900;8.208;2024-03-23T03:47:24;9.60;99.90
18456;DHT22;9357;49.900;8.208;2024-03-23T03:48:55;9.60;99.90
18456;DHT22;9357;49.900;8.208;2024-03-23T03:50:26;9.60;99.90
18456;DHT22;9357;49.900;8.208;2024-03-23T03:51:57;9.60;99.90
18456;DHT22;9357;49.900;8.208;2024-03-23T03:53:28;9.60;99.90
18456;DHT22;9357;49.900;8.208;2024-03-23T03:55:03;9.60;99.90
18456;DHT22;9357;49.900;8.208;2024-03-23T03:56:34;9.70;99.90
18456;DHT22;9357;49.900;8.208;2024-03-23T03:58:05;9.60;99.90
18456;DHT22;9357;49.900;8.208;2024-03-23T03:59:36;9.70;99.90
18456;DHT22;9357;49.900;8.208;2024-03-23T04:01:07;9.70;99.90
18456;DHT22;9357;49.900;8.208;2024-03-23T04:02:39;9.70;99.90
18456;DHT22;9357;49.900;8.208;2024-03-23T04:04:10;9.70;99.90
18456;DHT22;9357;49.900;8.208;2024-03-23T04:05:42;9.70;99.90
18456;DHT22;9357;49.900;8.208;2024-03-23T04:07:14;9.70;99.90
18456;DHT22;9357;49.900;8.208;2024-03-23T04:08:44;9.60;99.90
18456;DHT22;9357;49.900;8.208;2024-03-23T04:10:17;9.60;99.90
18456;DHT22;9357;49.900;8.208;2024-03-23T04:11:49;9.60;99.90
18456;DHT22;9357;49.900;8.208;2024-03-23T04:13:19;9.50;99.90
18456;DHT22;9357;49.900;8.208;2024-03-23T04:14:51;9.50;99.90
18456;DHT22;9357;49.900;8.208;2024-03-23T04:16:27;9.40;99.90
18456;DHT22;9357;49.900;8.208;2024-03-23T04:17:57;9.30;99.90
18456;DHT22;9357;49.900;8.208;2024-03-23T04:19:29;9.30;99.90
18456;DHT22;9357;49.900;8.208;2024-03-23T04:21:00;9.20;99.90
18456;DHT22;9357;49.900;8.208;2024-03-23T04:22:32;9.10;99.90
18456;DHT22;9357;49.900;8.208;2024-03-23T04:24:03;9.10;99.90
18456;DHT22;9357;49.900;8.208;2024-03-23T04:25:36;9.10;99.90
18456;DHT22;9357;49.900;8.208;2024-03-23T04:27:07;9.00;99.90
18456;DHT22;9357;49.900;8.208;2024-03-23T04:28:38;8.90;99.90
18456;DHT22;9357;49.900;8.208;2024-03-23T04:30:10;8.90;99.90
18456;DHT22;9357;49.900;8.208;2024-03-23T04:31:43;8.80;99.90
18456;DHT22;9357;49.900;8.208;2024-03-23T04:33:13;8.80;99.90
18456;DHT22;9357;49.900;8.208;2024-03-23T04:34:45;8.80;99.90
18456;DHT22;9357;49.900;8.208;2024-03-23T04:36:16;8.70;99.90
18456;DHT22;9357;49.900;8.208;2024-03-23T04:37:47;8.70;99.90
18456;DHT22;9357;49.900;8.208;2024-03-23T04:39:19;8.70;99.90
18456;DHT22;9357;49.900;8.208;2024-03-23T04:40:55;8.70;99.90
18456;DHT22;9357;49.900;8.208;2024-03-23T04:42:27;8.60;99.90
18456;DHT22;9357;49.900;8.208;2024-03-23T04:43:58;8.60;99.90
18456;DHT22;9357;49.900;8.208;2024-03-23T04:45:30;8.50;99.90
18456;DHT22;9357;49.900;8.208;2024-03-23T04:47:01;8.50;99.90
18456;DHT22;9357;49.900;8.208;2024-03-23T04:48:33;8.50;99.90
18456;DHT22;9357;49.900;8.208;2024-03-23T04:50:04;8.50;99.90
18456;DHT22;9357;49.900;8.208;2024-03-23T04:51:36;8.40;99.90
18456;DHT22;9357;49.900;8.208;2024-03-23T04:53:07;8.40;99.90
18456;DHT22;9357;49.900;8.208;2024-03-23T04:54:39;8.40;99.90
18456;DHT22;9357;49.900;8.208;2024-03-23T04:56:12;8.40;99.90
18456;DHT22;9357;49.900;8.208;2024-03-23T04:57:44;8.40;99.90
18456;DHT22;9357;49.900;8.208;2024-03-23T04:59:15;8.40;99.90
18456;DHT22;9357;49.900;8.208;2024-03-23T05:00:46;8.30;99.90
18456;DHT22;9357;49.900;8.208;2024-03-23T05:02:17;8.30;99.90
18456;DHT22;9357;49.900;8.208;2024-03-23T05:03:48;8.30;99.90
18456;DHT22;9357;49.900;8.208;2024-03-23T05:05:20;8.20;99.90
18456;DHT22;9357;49.900;8.208;2024-03-23T05:06:51;8.20;99.90
18456;DHT22;9357;49.900;8.208;2024-03-23T05:08:22;8.20;99.90
18456;DHT22;9357;49.900;8.208;2024-03-23T05:09:54;8.10;99.90
18456;DHT22;9357;49.900;8.208;2024-03-23T05:11:26;8.10;99.90
18456;DHT22;9357;49.900;8.208;2024-03-23T05:12:57;8.00;99.90
18456;DHT22;9357;49.900;8.208;2024-03-23T05:14:29;8.00;99.90
18456;DHT22;9357;49.900;8.208;2024-03-23T05:16:00;8.00;99.90
18456;DHT22;9357;49.900;8.208;2024-03-23T05:17:31;7.90;99.90
18456;DHT22;9357;49.900;8.208;2024-03-23T05:19:03;7.90;99.90
18456;DHT22;9357;49.900;8.208;2024-03-23T05:20:34;7.90;99.90
18456;DHT22;9357;49.900;8.208;2024-03-23T05:22:04;7.90;99.90
18456;DHT22;9357;49.900;8.208;2024-03-23T05:23:36;7.90;99.90
18456;DHT22;9357;49.900;8.208;2024-03-23T05:25:08;7.90;99.90
18456;DHT22;9357;49.900;8.208;2024-03-23T05:26:41;7.80;99.90
18456;DHT22;9357;49.900;8.208;2024-03-23T05:28:13;7.80;99.90
18456;DHT22;9357;49.900;8.208;2024-03-23T05:29:44;7.80;99.90
18456;DHT22;9357;49.900;8.208;2024-03-23T05:31:22;7.80;99.90
18456;DHT22;9357;49.900;8.208;2024-03-23T05:32:54;7.70;99.90
18456;DHT22;9357;49.900;8.208;2024-03-23T05:34:26;7.70;99.90
18456;DHT22;9357;49.900;8.208;2024-03-23T05:36:00;7.70;99.90
18456;DHT22;9357;49.900;8.208;2024-03-23T05:37:31;7.70;99.90
18456;DHT22;9357;49.900;8.208;2024-03-23T05:39:04;7.70;99.90
18456;DHT22;9357;49.900;8.208;2024-03-23T05:40:35;7.70;99.90
18456;DHT22;9357;49.900;8.208;2024-03-23T05:42:09;7.60;99.90
18456;DHT22;9357;49.900;8.208;2024-03-23T05:43:41;7.60;99.90
18456;DHT22;9357;49.900;8.208;2024-03-23T05:45:12;7.60;99.90
18456;DHT22;9357;49.900;8.208;2024-03-23T05:46:43;7.50;99.90
18456;DHT22;9357;49.900;8.208;2024-03-23T05:48:18;7.60;99.90
18456;DHT22;9357;49.900;8.208;2024-03-23T05:49:49;7.50;99.90
18456;DHT22;9357;49.900;8.208;2024-03-23T05:51:22;7.50;99.90
18456;DHT22;9357;49.900;8.208;2024-03-23T05:52:53;7.40;99.90
18456;DHT22;9357;49.900;8.208;2024-03-23T05:54:24;7.40;99.90
18456;DHT22;9357;49.900;8.208;2024-03-23T05:56:01;7.40;99.90
18456;DHT22;9357;49.900;8.208;2024-03-23T05:57:37;7.40;99.90
18456;DHT22;9357;49.900;8.208;2024-03-23T05:59:08;7.30;99.90
18456;DHT22;9357;49.900;8.208;2024-03-23T06:00:40;7.30;99.90
18456;DHT22;9357;49.900;8.208;2024-03-23T06:02:10;7.30;99.90
18456;DHT22;9357;49.900;8.208;2024-03-23T06:03:42;7.20;99.90
18456;DHT22;9357;49.900;8.208;2024-03-23T06:05:14;7.20;99.90
18456;DHT22;9357;49.900;8.208;2024-03-23T06:06:45;7.20;99.90
18456;DHT22;9357;49.900;8.208;2024-03-23T06:08:17;7.20;99.90
18456;DHT22;9357;49.900;8.208;2024-03-23T06:09:48;7.10;99.90
18456;DHT22;9357;49.900;8.208;2024-03-23T06:11:21;7.10;99.90
18456;DHT22;9357;49.900;8.208;2024-03-23T06:12:54;7.10;99.90
18456;DHT22;9357;49.900;8.208;2024-03-23T06:14:25;7.10;99.90
18456;DHT22;9357;49.900;8.208;2024-03-23T06:15:57;7.10;99.90
18456;DHT22;9357;49.900;8.208;2024-03-23T06:17:29;7.10;99.90
18456;DHT22;9357;49.900;8.208;2024-03-23T06:19:00;7.10;99.90
18456;DHT22;9357;49.900;8.208;2024-03-23T06:20:34;7.00;99.90
18456;DHT22;9357;49.900;8.208;2024-03-23T06:22:05;7.00;99.90
18456;DHT22;9357;49.900;8.208;2024-03-23T06:23:37;6.90;99.90
18456;DHT22;9357;49.900;8.208;2024-03-23T06:25:09;6.90;99.90
18456;DHT22;9357;49.900;8.208;2024-03-23T06:26:40;6.90;99.90
18456;DHT22;9357;49.900;8.208;2024-03-23T06:28:12;6.90;99.90
18456;DHT22;9357;49.900;8.208;2024-03-23T06:29:44;6.90;99.90
18456;DHT22;9357;49.900;8.208;2024-03-23T06:31:15;6.90;99.90
18456;DHT22;9357;49.900;8.208;2024-03-23T06:32:46;6.90;99.90
18456;DHT22;9357;49.900;8.208;2024-03-23T06:34:18;6.90;99.90
18456;DHT22;9357;49.900;8.208;2024-03-23T06:35:50;6.90;99.90
18456;DHT22;9357;49.900;8.208;2024-03-23T06:37:22;6.90;99.90
18456;DHT22;9357;49.900;8.208;2024-03-23T06:38:53;6.90;99.90
18456;DHT22;9357;49.900;8.208;2024-03-23T06:40:25;6.90;99.90
18456;DHT22;9357;49.900;8.208;2024-03-23T06:41:56;6.90;99.90
18456;DHT22;9357;49.900;8.208;2024-03-23T06:43:28;6.90;99.90
18456;DHT22;9357;49.900;8.208;2024-03-23T06:45:00;6.90;99.90
18456;DHT22;9357;49.900;8.208;2024-03-23T06:46:31;6.80;99.90
18456;DHT22;9357;49.900;8.208;2024-03-23T06:48:02;6.80;99.90
18456;DHT22;9357;49.900;8.208;2024-03-23T06:49:34;6.80;99.90
18456;DHT22;9357;49.900;8.208;2024-03-23T06:51:05;6.80;99.90
18456;DHT22;9357;49.900;8.208;2024-03-23T06:52:37;6.80;99.90
18456;DHT22;9357;49.900;8.208;2024-03-23T06:54:08;6.80;99.90
18456;DHT22;9357;49.900;8.208;2024-03-23T06:55:40;6.80;99.90
18456;DHT22;9357;49.900;8.208;2024-03-23T06:57:11;6.80;99.90
18456;DHT22;9357;49.900;8.208;2024-03-23T06:58:43;6.80;99.90
18456;DHT22;9357;49.900;8.208;2024-03-23T07:00:15;6.80;99.90
18456;DHT22;9357;49.900;8.208;2024-03-23T07:01:46;6.80;99.90
18456;DHT22;9357;49.900;8.208;2024-03-23T07:03:18;6.80;99.90
18456;DHT22;9357;49.900;8.208;2024-03-23T07:04:49;6.80;99.90
18456;DHT22;9357;49.900;8.208;2024-03-23T07:06:20;6.80;99.90
18456;DHT22;9357;49.900;8.208;2024-03-23T07:07:52;6.90;99.90
18456;DHT22;9357;49.900;8.208;2024-03-23T07:09:23;6.90;99.90
18456;DHT22;9357;49.900;8.208;2024-03-23T07:10:56;6.90;99.90
18456;DHT22;9357;49.900;8.208;2024-03-23T07:12:28;7.00;99.90
18456;DHT22;9357;49.900;8.208;2024-03-23T07:14:00;7.00;99.90
18456;DHT22;9357;49.900;8.208;2024-03-23T07:15:33;7.00;99.90
18456;DHT22;9357;49.900;8.208;2024-03-23T07:17:04;7.00;99.90
18456;DHT22;9357;49.900;8.208;2024-03-23T07:18:35;7.00;99.90
18456;DHT22;9357;49.900;8.208;2024-03-23T07:20:07;7.00;99.90
18456;DHT22;9357;49.900;8.208;2024-03-23T07:21:41;7.10;99.90
18456;DHT22;9357;49.900;8.208;2024-03-23T07:23:11;7.10;99.90
18456;DHT22;9357;49.900;8.208;2024-03-23T07:24:44;7.10;99.90
18456;DHT22;9357;49.900;8.208;2024-03-23T07:26:15;7.10;99.90
18456;DHT22;9357;49.900;8.208;2024-03-23T07:27:46;7.20;99.90
18456;DHT22;9357;49.900;8.208;2024-03-23T07:29:19;7.20;99.90
18456;DHT22;9357;49.900;8.208;2024-03-23T07:31:01;7.20;99.90
18456;DHT22;9357;49.900;8.208;2024-03-23T07:32:32;7.20;99.90
18456;DHT22;9357;49.900;8.208;2024-03-23T07:34:04;7.20;99.90
18456;DHT22;9357;49.900;8.208;2024-03-23T07:35:36;7.20;99.90
18456;DHT22;9357;49.900;8.208;2024-03-23T07:37:08;7.20;99.90
18456;DHT22;9357;49.900;8.208;2024-03-23T07:38:40;7.20;99.90
18456;DHT22;9357;49.900;8.208;2024-03-23T07:40:12;7.30;99.90
18456;DHT22;9357;49.900;8.208;2024-03-23T07:41:44;7.40;99.90
18456;DHT22;9357;49.900;8.208;2024-03-23T07:43:15;7.50;99.90
18456;DHT22;9357;49.900;8.208;2024-03-23T07:44:48;7.60;99.90
18456;DHT22;9357;49.900;8.208;2024-03-23T07:46:20;7.90;99.90
18456;DHT22;9357;49.900;8.208;2024-03-23T07:47:51;8.20;99.90
18456;DHT22;9357;49.900;8.208;2024-03-23T07:49:22;8.40;99.90
18456;DHT22;9357;49.900;8.208;2024-03-23T07:51:00;8.70;99.90
18456;DHT22;9357;49.900;8.208;2024-03-23T07:52:31;8.90;99.90
18456;DHT22;9357;49.900;8.208;2024-03-23T07:54:03;9.20;99.90
18456;DHT22;9357;49.900;8.208;2024-03-23T07:55:34;9.50;99.90
18456;DHT22;9357;49.900;8.208;2024-03-23T07:57:05;9.70;99.90
18456;DHT22;9357;49.900;8.208;2024-03-23T07:58:37;10.10;99.90
18456;DHT22;9357;49.900;8.208;2024-03-23T08:00:11;10.40;99.90
18456;DHT22;9357;49.900;8.208;2024-03-23T08:01:43;10.80;99.90
18456;DHT22;9357;49.900;8.208;2024-03-23T08:03:15;11.20;99.90
18456;DHT22;9357;49.900;8.208;2024-03-23T08:04:46;11.50;99.90
18456;DHT22;9357;49.900;8.208;2024-03-23T08:06:18;11.90;99.90
18456;DHT22;9357;49.900;8.208;2024-03-23T08:07:50;12.10;99.90
18456;DHT22;9357;49.900;8.208;2024-03-23T08:09:22;12.40;99.90
18456;DHT22;9357;49.900;8.208;2024-03-23T08:10:53;12.80;99.90
18456;DHT22;9357;49.900;8.208;2024-03-23T08:12:25;13.10;99.90
18456;DHT22;9357;49.900;8.208;2024-03-23T08:13:56;13.50;99.90
18456;DHT22;9357;49.900;8.208;2024-03-23T08:15:31;13.90;99.90
18456;DHT22;9357;49.900;8.208;2024-03-23T08:17:04;14.10;99.90
18456;DHT22;9357;49.900;8.208;2024-03-23T08:18:35;14.50;99.90
18456;DHT22;9357;49.900;8.208;2024-03-23T08:20:07;14.70;99.90
18456;DHT22;9357;49.900;8.208;2024-03-23T08:21:39;14.90;99.90
18456;DHT22;9357;49.900;8.208;2024-03-23T08:23:10;14.90;99.90
18456;DHT22;9357;49.900;8.208;2024-03-23T08:24:41;15.00;99.90
18456;DHT22;9357;49.900;8.208;2024-03-23T08:26:14;15.10;99.90
18456;DHT22;9357;49.900;8.208;2024-03-23T08:27:45;15.10;99.90
18456;DHT22;9357;49.900;8.208;2024-03-23T08:29:16;15.20;99.90
18456;DHT22;9357;49.900;8.208;2024-03-23T08:30:49;15.30;99.90
18456;DHT22;9357;49.900;8.208;2024-03-23T08:32:20;15.50;99.90
18456;DHT22;9357;49.900;8.208;2024-03-23T08:33:51;15.70;99.90
18456;DHT22;9357;49.900;8.208;2024-03-23T08:35:23;15.80;99.90
18456;DHT22;9357;49.900;8.208;2024-03-23T08:36:54;15.80;99.90
18456;DHT22;9357;49.900;8.208;2024-03-23T08:38:25;15.90;99.90
18456;DHT22;9357;49.900;8.208;2024-03-23T08:39:58;15.90;99.90
18456;DHT22;9357;49.900;8.208;2024-03-23T08:41:29;16.00;99.90
18456;DHT22;9357;49.900;8.208;2024-03-23T08:43:01;16.00;99.90
18456;DHT22;9357;49.900;8.208;2024-03-23T08:44:32;16.10;99.90
18456;DHT22;9357;49.900;8.208;2024-03-23T08:46:05;16.20;99.90
18456;DHT22;9357;49.900;8.208;2024-03-23T08:47:37;16.30;99.90
18456;DHT22;9357;49.900;8.208;2024-03-23T08:49:08;16.40;99.90
18456;DHT22;9357;49.900;8.208;2024-03-23T08:50:39;16.40;99.90
18456;DHT22;9357;49.900;8.208;2024-03-23T08:52:11;16.50;99.90
18456;DHT22;9357;49.900;8.208;2024-03-23T08:53:42;16.60;99.90
18456;DHT22;9357;49.900;8.208;2024-03-23T08:55:13;16.90;99.90
18456;DHT22;9357;49.900;8.208;2024-03-23T08:56:45;17.00;99.90
18456;DHT22;9357;49.900;8.208;2024-03-23T08:58:16;17.10;99.90
18456;DHT22;9357;49.900;8.208;2024-03-23T08:59:48;17.40;99.90
18456;DHT22;9357;49.900;8.208;2024-03-23T09:01:21;17.50;99.90
18456;DHT22;9357;49.900;8.208;2024-03-23T09:02:52;17.50;99.90
18456;DHT22;9357;49.900;8.208;2024-03-23T09:04:24;17.60;99.90
18456;DHT22;9357;49.900;8.208;2024-03-23T09:05:56;17.70;99.90
18456;DHT22;9357;49.900;8.208;2024-03-23T09:07:28;17.70;99.90
18456;DHT22;9357;49.900;8.208;2024-03-23T09:09:00;17.60;99.90
18456;DHT22;9357;49.900;8.208;2024-03-23T09:10:31;17.60;99.90
18456;DHT22;9357;49.900;8.208;2024-03-23T09:12:02;17.70;99.90
18456;DHT22;9357;49.900;8.208;2024-03-23T09:13:35;17.80;99.90
18456;DHT22;9357;49.900;8.208;2024-03-23T09:15:07;17.70;99.90
18456;DHT22;9357;49.900;8.208;2024-03-23T09:16:40;17.70;99.90
18456;DHT22;9357;49.900;8.208;2024-03-23T09:18:11;17.60;99.90
18456;DHT22;9357;49.900;8.208;2024-03-23T09:19:42;17.60;99.90
18456;DHT22;9357;49.900;8.208;2024-03-23T09:21:13;17.50;99.90
18456;DHT22;9357;49.900;8.208;2024-03-23T09:22:45;17.20;99.90
18456;DHT22;9357;49.900;8.208;2024-03-23T09:24:19;17.00;99.90
18456;DHT22;9357;49.900;8.208;2024-03-23T09:25:50;16.90;99.90
18456;DHT22;9357;49.900;8.208;2024-03-23T09:27:22;16.80;99.90
18456;DHT22;9357;49.900;8.208;2024-03-23T09:28:53;16.50;99.90
18456;DHT22;9357;49.900;8.208;2024-03-23T09:30:25;16.30;99.90
18456;DHT22;9357;49.900;8.208;2024-03-23T09:31:57;16.10;99.90
18456;DHT22;9357;49.900;8.208;2024-03-23T09:33:29;16.10;99.90
18456;DHT22;9357;49.900;8.208;2024-03-23T09:35:00;16.10;99.90
18456;DHT22;9357;49.900;8.208;2024-03-23T09:36:30;16.20;99.90
18456;DHT22;9357;49.900;8.208;2024-03-23T09:38:03;16.30;99.90
18456;DHT22;9357;49.900;8.208;2024-03-23T09:39:33;16.40;99.90
18456;DHT22;9357;49.900;8.208;2024-03-23T09:41:07;16.40;99.90
18456;DHT22;9357;49.900;8.208;2024-03-23T09:42:40;16.50;99.90
18456;DHT22;9357;49.900;8.208;2024-03-23T09:44:16;16.30;99.90
18456;DHT22;9357;49.900;8.208;2024-03-23T09:45:49;16.30;99.90
18456;DHT22;9357;49.900;8.208;2024-03-23T09:47:22;16.20;99.90
18456;DHT22;9357;49.900;8.208;2024-03-23T09:48:55;16.20;99.90
18456;DHT22;9357;49.900;8.208;2024-03-23T09:50:26;16.10;99.90
18456;DHT22;9357;49.900;8.208;2024-03-23T09:51:58;16.30;99.90
18456;DHT22;9357;49.900;8.208;2024-03-23T09:53:29;16.20;99.90
18456;DHT22;9357;49.900;8.208;2024-03-23T09:55:00;16.40;99.90
18456;DHT22;9357;49.900;8.208;2024-03-23T09:56:32;16.50;99.90
18456;DHT22;9357;49.900;8.208;2024-03-23T09:58:04;16.60;99.90
18456;DHT22;9357;49.900;8.208;2024-03-23T09:59:35;16.60;99.90
18456;DHT22;9357;49.900;8.208;2024-03-23T10:01:07;16.60;99.90
18456;DHT22;9357;49.900;8.208;2024-03-23T10:02:40;16.50;99.90
18456;DHT22;9357;49.900;8.208;2024-03-23T10:04:23;16.30;99.90
18456;DHT22;9357;49.900;8.208;2024-03-23T10:06:06;16.00;99.90
18456;DHT22;9357;49.900;8.208;2024-03-23T10:07:38;15.50;99.90
18456;DHT22;9357;49.900;8.208;2024-03-23T10:09:16;15.00;99.90
18456;DHT22;9357;49.900;8.208;2024-03-23T10:10:48;14.60;99.90
18456;DHT22;9357;49.900;8.208;2024-03-23T10:12:20;14.40;99.90
18456;DHT22;9357;49.900;8.208;2024-03-23T10:13:51;14.30;99.90
18456;DHT22;9357;49.900;8.208;2024-03-23T10:15:23;14.10;99.90
18456;DHT22;9357;49.900;8.208;2024-03-23T10:17:11;14.00;99.90
18456;DHT22;9357;49.900;8.208;2024-03-23T10:18:45;13.70;99.90
18456;DHT22;9357;49.900;8.208;2024-03-23T10:20:19;13.70;99.90
18456;DHT22;9357;49.900;8.208;2024-03-23T10:21:52;13.70;99.90
18456;DHT22;9357;49.900;8.208;2024-03-23T10:23:23;13.70;99.90
18456;DHT22;9357;49.900;8.208;2024-03-23T10:25:07;13.50;99.90
18456;DHT22;9357;49.900;8.208;2024-03-23T10:26:39;13.10;99.90
18456;DHT22;9357;49.900;8.208;2024-03-23T10:28:11;12.70;99.90
18456;DHT22;9357;49.900;8.208;2024-03-23T10:29:42;12.20;99.90
18456;DHT22;9357;49.900;8.208;2024-03-23T10:31:13;11.70;99.90
18456;DHT22;9357;49.900;8.208;2024-03-23T10:32:44;11.30;99.90
18456;DHT22;9357;49.900;8.208;2024-03-23T10:34:25;11.00;99.90
18456;DHT22;9357;49.900;8.208;2024-03-23T10:35:56;10.80;99.90
18456;DHT22;9357;49.900;8.208;2024-03-23T10:37:27;10.40;99.90
18456;DHT22;9357;49.900;8.208;2024-03-23T10:38:59;10.20;99.90
18456;DHT22;9357;49.900;8.208;2024-03-23T10:40:30;9.90;99.90
18456;DHT22;9357;49.900;8.208;2024-03-23T10:42:05;9.70;99.90
18456;DHT22;9357;49.900;8.208;2024-03-23T10:43:38;9.40;99.90
18456;DHT22;9357;49.900;8.208;2024-03-23T10:45:10;9.30;99.90
18456;DHT22;9357;49.900;8.208;2024-03-23T10:46:41;9.10;99.90
18456;DHT22;9357;49.900;8.208;2024-03-23T10:48:12;9.00;99.90
18456;DHT22;9357;49.900;8.208;2024-03-23T10:49:45;8.90;99.90